sensor_id;sensor_type;location;lat;lon;timestamp;temperature;humidity
11239;DHT22;5677;48.488;13.436;2022-08-21T00:01:05;22.70;62.30
11239;DHT22;5677;48.488;13.436;2022-08-21T00:03:37;22.80;62.20
11239;DHT22;5677;48.488;13.436;2022-08-21T00:06:08;22.80;62.20
11239;DHT22;5677;48.488;13.436;2022-08-21T00:08:37;22.80;62.10
11239;DHT22;5677;48.488;13.436;2022-08-21T00:11:06;22.80;62.10
11239;DHT22;5677;48.488;13.436;2022-08-21T00:13:35;22.80;62.00
11239;DHT22;5677;48.488;13.436;2022-08-21T00:16:04;22.80;61.90
11239;DHT22;5677;48.488;13.436;2022-08-21T00:18:33;22.80;61.90
11239;DHT22;5677;48.488;13.436;2022-08-21T00:21:02;22.80;61.90
11239;DHT22;5677;48.488;13.436;2022-08-21T00:23:33;22.70;61.80
11239;DHT22;5677;48.488;13.436;2022-08-21T00:26:02;22.70;61.80
11239;DHT22;5677;48.488;13.436;2022-08-21T00:28:31;22.70;61.80
11239;DHT22;5677;48.488;13.436;2022-08-21T00:31:00;22.70;61.70
11239;DHT22;5677;48.488;13.436;2022-08-21T00:33:30;22.70;61.70
11239;DHT22;5677;48.488;13.436;2022-08-21T00:36:00;22.80;61.70
11239;DHT22;5677;48.488;13.436;2022-08-21T00:38:30;22.70;61.70
11239;DHT22;5677;48.488;13.436;2022-08-21T00:41:01;22.70;61.70
11239;DHT22;5677;48.488;13.436;2022-08-21T00:43:34;22.70;61.70
11239;DHT22;5677;48.488;13.436;2022-08-21T00:46:04;22.80;61.60
11239;DHT22;5677;48.488;13.436;2022-08-21T00:48:34;22.70;61.60
11239;DHT22;5677;48.488;13.436;2022-08-21T00:51:06;22.70;61.60
11239;DHT22;5677;48.488;13.436;2022-08-21T00:53:41;22.70;61.50
11239;DHT22;5677;48.488;13.436;2022-08-21T00:56:13;22.70;61.90
11239;DHT22;5677;48.488;13.436;2022-08-21T00:58:42;22.70;61.50
11239;DHT22;5677;48.488;13.436;2022-08-21T01:01:11;22.70;61.50
11239;DHT22;5677;48.488;13.436;2022-08-21T01:03:41;22.70;61.40
11239;DHT22;5677;48.488;13.436;2022-08-21T01:06:09;22.70;61.40
11239;DHT22;5677;48.488;13.436;2022-08-21T01:08:40;22.70;61.40
11239;DHT22;5677;48.488;13.436;2022-08-21T01:11:08;22.70;61.40
11239;DHT22;5677;48.488;13.436;2022-08-21T01:13:37;22.70;61.40
11239;DHT22;5677;48.488;13.436;2022-08-21T01:16:15;22.70;61.40
11239;DHT22;5677;48.488;13.436;2022-08-21T01:18:45;22.70;61.40
11239;DHT22;5677;48.488;13.436;2022-08-21T01:21:19;22.70;61.40
11239;DHT22;5677;48.488;13.436;2022-08-21T01:23:51;22.70;61.30
11239;DHT22;5677;48.488;13.436;2022-08-21T01:26:23;22.70;61.30
11239;DHT22;5677;48.488;13.436;2022-08-21T01:28:57;22.70;61.30
11239;DHT22;5677;48.488;13.436;2022-08-21T01:31:29;22.70;61.30
11239;DHT22;5677;48.488;13.436;2022-08-21T01:33:59;22.70;61.30
11239;DHT22;5677;48.488;13.436;2022-08-21T01:36:30;22.70;61.20
11239;DHT22;5677;48.488;13.436;2022-08-21T01:39:00;22.60;61.20
11239;DHT22;5677;48.488;13.436;2022-08-21T01:41:29;22.70;61.20
11239;DHT22;5677;48.488;13.436;2022-08-21T01:43:58;22.70;61.20
11239;DHT22;5677;48.488;13.436;2022-08-21T01:46:26;22.70;61.20
11239;DHT22;5677;48.488;13.436;2022-08-21T01:48:56;22.70;61.20
11239;DHT22;5677;48.488;13.436;2022-08-21T01:51:24;22.70;61.20
11239;DHT22;5677;48.488;13.436;2022-08-21T01:53:54;22.60;61.10
11239;DHT22;5677;48.488;13.436;2022-08-21T01:56:24;22.70;61.20
11239;DHT22;5677;48.488;13.436;2022-08-21T01:58:54;22.70;61.20
11239;DHT22;5677;48.488;13.436;2022-08-21T02:01:22;22.70;61.20
11239;DHT22;5677;48.488;13.436;2022-08-21T02:03:50;22.70;61.20
11239;DHT22;5677;48.488;13.436;2022-08-21T02:06:19;22.70;61.20
11239;DHT22;5677;48.488;13.436;2022-08-21T02:08:47;22.70;61.20
11239;DHT22;5677;48.488;13.436;2022-08-21T02:11:18;22.60;61.00
11239;DHT22;5677;48.488;13.436;2022-08-21T02:13:47;22.60;61.00
11239;DHT22;5677;48.488;13.436;2022-08-21T02:16:16;22.60;61.10
11239;DHT22;5677;48.488;13.436;2022-08-21T02:18:44;22.60;61.10
11239;DHT22;5677;48.488;13.436;2022-08-21T02:21:14;22.60;61.10
11239;DHT22;5677;48.488;13.436;2022-08-21T02:23:42;22.60;61.00
11239;DHT22;5677;48.488;13.436;2022-08-21T02:26:12;22.60;61.00
11239;DHT22;5677;48.488;13.436;2022-08-21T02:28:42;22.60;61.10
11239;DHT22;5677;48.488;13.436;2022-08-21T02:31:11;22.60;61.00
11239;DHT22;5677;48.488;13.436;2022-08-21T02:33:40;22.60;61.00
11239;DHT22;5677;48.488;13.436;2022-08-21T02:36:10;22.60;61.00
11239;DHT22;5677;48.488;13.436;2022-08-21T02:38:41;22.60;61.00
11239;DHT22;5677;48.488;13.436;2022-08-21T02:41:13;22.60;61.00
11239;DHT22;5677;48.488;13.436;2022-08-21T02:43:45;22.60;61.00
11239;DHT22;5677;48.488;13.436;2022-08-21T02:46:16;22.60;61.00
11239;DHT22;5677;48.488;13.436;2022-08-21T02:48:46;22.60;61.00
11239;DHT22;5677;48.488;13.436;2022-08-21T02:51:16;22.70;61.10
11239;DHT22;5677;48.488;13.436;2022-08-21T02:53:49;22.60;60.90
11239;DHT22;5677;48.488;13.436;2022-08-21T02:56:19;22.60;61.00
11239;DHT22;5677;48.488;13.436;2022-08-21T02:58:52;22.60;61.00
11239;DHT22;5677;48.488;13.436;2022-08-21T03:01:20;22.60;61.00
11239;DHT22;5677;48.488;13.436;2022-08-21T03:03:49;22.60;61.00
11239;DHT22;5677;48.488;13.436;2022-08-21T03:06:19;22.60;61.00
11239;DHT22;5677;48.488;13.436;2022-08-21T03:08:51;22.60;61.00
11239;DHT22;5677;48.488;13.436;2022-08-21T03:11:19;22.60;61.00
11239;DHT22;5677;48.488;13.436;2022-08-21T03:13:50;22.60;61.00
11239;DHT22;5677;48.488;13.436;2022-08-21T03:16:18;22.60;61.00
11239;DHT22;5677;48.488;13.436;2022-08-21T03:18:47;22.60;60.90
11239;DHT22;5677;48.488;13.436;2022-08-21T03:21:15;22.60;60.90
11239;DHT22;5677;48.488;13.436;2022-08-21T03:23:45;22.60;61.00
11239;DHT22;5677;48.488;13.436;2022-08-21T03:26:13;22.60;60.90
11239;DHT22;5677;48.488;13.436;2022-08-21T03:28:42;22.60;60.90
11239;DHT22;5677;48.488;13.436;2022-08-21T03:31:12;22.60;60.90
11239;DHT22;5677;48.488;13.436;2022-08-21T03:33:42;22.60;60.90
11239;DHT22;5677;48.488;13.436;2022-08-21T03:36:12;22.60;60.90
11239;DHT22;5677;48.488;13.436;2022-08-21T03:38:41;22.60;60.90
11239;DHT22;5677;48.488;13.436;2022-08-21T03:41:10;22.60;60.90
11239;DHT22;5677;48.488;13.436;2022-08-21T03:43:38;22.60;60.90
11239;DHT22;5677;48.488;13.436;2022-08-21T03:46:07;22.60;60.90
11239;DHT22;5677;48.488;13.436;2022-08-21T03:48:38;22.60;60.90
11239;DHT22;5677;48.488;13.436;2022-08-21T03:51:07;22.60;60.90
11239;DHT22;5677;48.488;13.436;2022-08-21T03:53:38;22.60;60.80
11239;DHT22;5677;48.488;13.436;2022-08-21T03:56:07;22.60;60.80
11239;DHT22;5677;48.488;13.436;2022-08-21T03:58:36;22.60;60.80
11239;DHT22;5677;48.488;13.436;2022-08-21T04:01:06;22.60;60.80
11239;DHT22;5677;48.488;13.436;2022-08-21T04:03:37;22.60;60.90
11239;DHT22;5677;48.488;13.436;2022-08-21T04:06:07;22.60;60.90
11239;DHT22;5677;48.488;13.436;2022-08-21T04:08:37;22.60;60.90
11239;DHT22;5677;48.488;13.436;2022-08-21T04:11:08;22.60;60.80
11239;DHT22;5677;48.488;13.436;2022-08-21T04:13:37;22.60;60.90
11239;DHT22;5677;48.488;13.436;2022-08-21T04:16:07;22.60;60.80
11239;DHT22;5677;48.488;13.436;2022-08-21T04:18:37;22.60;60.80
11239;DHT22;5677;48.488;13.436;2022-08-21T04:21:07;22.60;60.90
11239;DHT22;5677;48.488;13.436;2022-08-21T04:23:39;22.60;60.90
11239;DHT22;5677;48.488;13.436;2022-08-21T04:26:08;22.60;60.90
11239;DHT22;5677;48.488;13.436;2022-08-21T04:28:37;22.60;60.80
11239;DHT22;5677;48.488;13.436;2022-08-21T04:31:06;22.60;60.80
11239;DHT22;5677;48.488;13.436;2022-08-21T04:33:35;22.60;60.80
11239;DHT22;5677;48.488;13.436;2022-08-21T04:36:06;22.60;60.80
11239;DHT22;5677;48.488;13.436;2022-08-21T04:38:34;22.60;60.90
11239;DHT22;5677;48.488;13.436;2022-08-21T04:41:03;22.60;60.80
11239;DHT22;5677;48.488;13.436;2022-08-21T04:43:33;22.60;60.90
11239;DHT22;5677;48.488;13.436;2022-08-21T04:46:02;22.60;60.90
11239;DHT22;5677;48.488;13.436;2022-08-21T04:48:31;22.60;60.90
11239;DHT22;5677;48.488;13.436;2022-08-21T04:51:05;22.60;60.90
11239;DHT22;5677;48.488;13.436;2022-08-21T04:53:39;22.60;60.90
11239;DHT22;5677;48.488;13.436;2022-08-21T04:56:14;22.60;60.90
11239;DHT22;5677;48.488;13.436;2022-08-21T04:58:47;22.60;60.80
11239;DHT22;5677;48.488;13.436;2022-08-21T05:01:20;22.60;60.80
11239;DHT22;5677;48.488;13.436;2022-08-21T05:03:53;22.60;60.80
11239;DHT22;5677;48.488;13.436;2022-08-21T05:06:26;22.60;60.90
11239;DHT22;5677;48.488;13.436;2022-08-21T05:08:58;22.60;60.90
11239;DHT22;5677;48.488;13.436;2022-08-21T05:11:28;22.60;61.00
11239;DHT22;5677;48.488;13.436;2022-08-21T05:13:58;22.60;61.00
11239;DHT22;5677;48.488;13.436;2022-08-21T05:16:27;22.60;61.00
11239;DHT22;5677;48.488;13.436;2022-08-21T05:18:56;22.60;61.00
11239;DHT22;5677;48.488;13.436;2022-08-21T05:21:26;22.60;61.60
11239;DHT22;5677;48.488;13.436;2022-08-21T05:23:55;22.50;62.00
11239;DHT22;5677;48.488;13.436;2022-08-21T05:26:23;22.50;62.10
11239;DHT22;5677;48.488;13.436;2022-08-21T05:28:52;22.50;62.20
11239;DHT22;5677;48.488;13.436;2022-08-21T05:31:21;22.50;62.30
11239;DHT22;5677;48.488;13.436;2022-08-21T05:33:49;22.50;62.60
11239;DHT22;5677;48.488;13.436;2022-08-21T05:36:18;22.40;62.80
11239;DHT22;5677;48.488;13.436;2022-08-21T05:38:49;22.40;62.90
11239;DHT22;5677;48.488;13.436;2022-08-21T05:41:17;22.40;62.90
11239;DHT22;5677;48.488;13.436;2022-08-21T05:43:46;22.40;63.00
11239;DHT22;5677;48.488;13.436;2022-08-21T05:46:15;22.40;63.10
11239;DHT22;5677;48.488;13.436;2022-08-21T05:48:43;22.40;63.30
11239;DHT22;5677;48.488;13.436;2022-08-21T05:51:14;22.40;63.30
11239;DHT22;5677;48.488;13.436;2022-08-21T05:53:44;22.30;63.40
11239;DHT22;5677;48.488;13.436;2022-08-21T05:56:14;22.30;63.50
11239;DHT22;5677;48.488;13.436;2022-08-21T05:58:43;22.30;63.50
11239;DHT22;5677;48.488;13.436;2022-08-21T06:01:12;22.30;64.00
11239;DHT22;5677;48.488;13.436;2022-08-21T06:03:42;22.30;63.80
11239;DHT22;5677;48.488;13.436;2022-08-21T06:06:11;22.30;63.80
11239;DHT22;5677;48.488;13.436;2022-08-21T06:08:41;22.30;63.60
11239;DHT22;5677;48.488;13.436;2022-08-21T06:11:11;22.30;63.80
11239;DHT22;5677;48.488;13.436;2022-08-21T06:13:41;22.30;63.90
11239;DHT22;5677;48.488;13.436;2022-08-21T06:16:11;22.30;64.00
11239;DHT22;5677;48.488;13.436;2022-08-21T06:18:42;22.30;64.00
11239;DHT22;5677;48.488;13.436;2022-08-21T06:21:11;22.30;64.00
11239;DHT22;5677;48.488;13.436;2022-08-21T06:23:41;22.30;64.20
11239;DHT22;5677;48.488;13.436;2022-08-21T06:26:13;22.30;64.30
11239;DHT22;5677;48.488;13.436;2022-08-21T06:28:42;22.20;64.20
11239;DHT22;5677;48.488;13.436;2022-08-21T06:31:13;22.30;64.50
11239;DHT22;5677;48.488;13.436;2022-08-21T06:33:43;22.30;65.10
11239;DHT22;5677;48.488;13.436;2022-08-21T06:36:12;22.20;65.30
11239;DHT22;5677;48.488;13.436;2022-08-21T06:38:41;22.20;65.50
11239;DHT22;5677;48.488;13.436;2022-08-21T06:41:09;22.20;65.50
11239;DHT22;5677;48.488;13.436;2022-08-21T06:43:39;22.20;65.90
11239;DHT22;5677;48.488;13.436;2022-08-21T06:46:08;22.20;66.20
11239;DHT22;5677;48.488;13.436;2022-08-21T06:48:36;22.20;66.00
11239;DHT22;5677;48.488;13.436;2022-08-21T06:51:05;22.20;66.40
11239;DHT22;5677;48.488;13.436;2022-08-21T06:53:34;22.20;66.80
11239;DHT22;5677;48.488;13.436;2022-08-21T06:56:03;22.20;67.10
11239;DHT22;5677;48.488;13.436;2022-08-21T06:58:32;22.20;67.10
11239;DHT22;5677;48.488;13.436;2022-08-21T07:01:03;22.20;66.80
11239;DHT22;5677;48.488;13.436;2022-08-21T07:03:34;22.20;67.00
11239;DHT22;5677;48.488;13.436;2022-08-21T07:06:06;22.20;66.90
11239;DHT22;5677;48.488;13.436;2022-08-21T07:08:37;22.30;66.90
11239;DHT22;5677;48.488;13.436;2022-08-21T07:11:11;22.30;66.70
11239;DHT22;5677;48.488;13.436;2022-08-21T07:13:44;22.30;66.70
11239;DHT22;5677;48.488;13.436;2022-08-21T07:16:14;22.30;66.70
11239;DHT22;5677;48.488;13.436;2022-08-21T07:18:43;22.30;66.70
11239;DHT22;5677;48.488;13.436;2022-08-21T07:21:12;22.30;66.80
11239;DHT22;5677;48.488;13.436;2022-08-21T07:23:43;22.30;67.00
11239;DHT22;5677;48.488;13.436;2022-08-21T07:26:14;22.30;66.90
11239;DHT22;5677;48.488;13.436;2022-08-21T07:28:44;22.20;67.60
11239;DHT22;5677;48.488;13.436;2022-08-21T07:31:16;22.30;66.80
11239;DHT22;5677;48.488;13.436;2022-08-21T07:33:46;22.20;66.60
11239;DHT22;5677;48.488;13.436;2022-08-21T07:36:15;22.30;66.60
11239;DHT22;5677;48.488;13.436;2022-08-21T07:38:45;22.20;66.70
11239;DHT22;5677;48.488;13.436;2022-08-21T07:41:16;22.20;66.70
11239;DHT22;5677;48.488;13.436;2022-08-21T07:43:46;22.20;66.70
11239;DHT22;5677;48.488;13.436;2022-08-21T07:46:16;22.20;66.70
11239;DHT22;5677;48.488;13.436;2022-08-21T07:48:45;22.20;66.60
11239;DHT22;5677;48.488;13.436;2022-08-21T07:51:15;22.20;66.40
11239;DHT22;5677;48.488;13.436;2022-08-21T07:53:48;22.20;67.30
11239;DHT22;5677;48.488;13.436;2022-08-21T07:56:18;22.20;66.40
11239;DHT22;5677;48.488;13.436;2022-08-21T07:58:47;22.20;66.50
11239;DHT22;5677;48.488;13.436;2022-08-21T08:01:18;22.20;66.80
11239;DHT22;5677;48.488;13.436;2022-08-21T08:03:47;22.10;66.70
11239;DHT22;5677;48.488;13.436;2022-08-21T08:06:16;22.10;67.40
11239;DHT22;5677;48.488;13.436;2022-08-21T08:08:45;22.00;67.30
11239;DHT22;5677;48.488;13.436;2022-08-21T08:11:14;22.10;67.40
11239;DHT22;5677;48.488;13.436;2022-08-21T08:13:45;22.10;67.40
11239;DHT22;5677;48.488;13.436;2022-08-21T08:16:19;22.20;67.10
11239;DHT22;5677;48.488;13.436;2022-08-21T08:18:47;22.20;67.00
11239;DHT22;5677;48.488;13.436;2022-08-21T08:21:17;22.20;66.80
11239;DHT22;5677;48.488;13.436;2022-08-21T08:23:47;22.20;66.70
11239;DHT22;5677;48.488;13.436;2022-08-21T08:26:16;22.30;66.60
11239;DHT22;5677;48.488;13.436;2022-08-21T08:28:44;22.30;66.30
11239;DHT22;5677;48.488;13.436;2022-08-21T08:31:14;22.30;66.20
11239;DHT22;5677;48.488;13.436;2022-08-21T08:33:45;22.30;66.00
11239;DHT22;5677;48.488;13.436;2022-08-21T08:36:14;22.30;65.90
11239;DHT22;5677;48.488;13.436;2022-08-21T08:38:43;22.30;65.80
11239;DHT22;5677;48.488;13.436;2022-08-21T08:41:14;22.30;65.60
11239;DHT22;5677;48.488;13.436;2022-08-21T08:43:53;22.30;65.50
11239;DHT22;5677;48.488;13.436;2022-08-21T08:46:33;22.30;65.40
11239;DHT22;5677;48.488;13.436;2022-08-21T08:49:13;22.40;65.30
11239;DHT22;5677;48.488;13.436;2022-08-21T08:51:46;22.40;65.20
11239;DHT22;5677;48.488;13.436;2022-08-21T08:54:26;22.40;65.20
11239;DHT22;5677;48.488;13.436;2022-08-21T08:56:58;22.30;65.00
11239;DHT22;5677;48.488;13.436;2022-08-21T08:59:35;22.30;65.00
11239;DHT22;5677;48.488;13.436;2022-08-21T09:02:10;22.30;64.90
11239;DHT22;5677;48.488;13.436;2022-08-21T09:04:42;22.40;64.90
11239;DHT22;5677;48.488;13.436;2022-08-21T09:07:19;22.40;64.80
11239;DHT22;5677;48.488;13.436;2022-08-21T09:10:04;22.40;64.80
11239;DHT22;5677;48.488;13.436;2022-08-21T09:12:49;22.40;64.70
11239;DHT22;5677;48.488;13.436;2022-08-21T09:15:30;22.40;64.60
11239;DHT22;5677;48.488;13.436;2022-08-21T09:18:25;22.40;64.50
11239;DHT22;5677;48.488;13.436;2022-08-21T09:21:14;22.40;64.40
11239;DHT22;5677;48.488;13.436;2022-08-21T09:23:57;22.40;64.40
11239;DHT22;5677;48.488;13.436;2022-08-21T09:26:34;22.40;64.30
11239;DHT22;5677;48.488;13.436;2022-08-21T09:29:11;22.50;64.40
11239;DHT22;5677;48.488;13.436;2022-08-21T09:31:40;22.50;64.30
11239;DHT22;5677;48.488;13.436;2022-08-21T09:34:11;22.50;64.20
11239;DHT22;5677;48.488;13.436;2022-08-21T09:36:44;22.50;64.10
11239;DHT22;5677;48.488;13.436;2022-08-21T09:39:24;22.50;64.10
11239;DHT22;5677;48.488;13.436;2022-08-21T09:41:57;22.50;64.10
11239;DHT22;5677;48.488;13.436;2022-08-21T09:44:29;22.50;64.00
11239;DHT22;5677;48.488;13.436;2022-08-21T09:47:02;22.50;63.90
11239;DHT22;5677;48.488;13.436;2022-08-21T09:49:35;22.50;63.90
11239;DHT22;5677;48.488;13.436;2022-08-21T09:52:19;22.50;64.20
11239;DHT22;5677;48.488;13.436;2022-08-21T09:54:51;22.50;64.70
11239;DHT22;5677;48.488;13.436;2022-08-21T09:57:25;22.60;64.70
11239;DHT22;5677;48.488;13.436;2022-08-21T10:00:10;22.60;64.80
11239;DHT22;5677;48.488;13.436;2022-08-21T10:02:46;22.60;64.90
11239;DHT22;5677;48.488;13.436;2022-08-21T10:05:25;22.60;65.10
11239;DHT22;5677;48.488;13.436;2022-08-21T10:07:56;22.60;65.30
11239;DHT22;5677;48.488;13.436;2022-08-21T10:10:28;22.60;65.30
11239;DHT22;5677;48.488;13.436;2022-08-21T10:13:06;22.60;65.30
11239;DHT22;5677;48.488;13.436;2022-08-21T10:15:47;22.70;65.30
11239;DHT22;5677;48.488;13.436;2022-08-21T10:18:26;22.70;65.70
11239;DHT22;5677;48.488;13.436;2022-08-21T10:21:02;22.70;66.10
11239;DHT22;5677;48.488;13.436;2022-08-21T10:23:51;22.70;66.60
11239;DHT22;5677;48.488;13.436;2022-08-21T10:26:39;22.80;67.40
11239;DHT22;5677;48.488;13.436;2022-08-21T10:29:24;22.80;67.70
11239;DHT22;5677;48.488;13.436;2022-08-21T10:35:19;22.80;68.40
11239;DHT22;5677;48.488;13.436;2022-08-21T10:38:27;22.80;69.00
11239;DHT22;5677;48.488;13.436;2022-08-21T10:41:17;22.80;69.00
11239;DHT22;5677;48.488;13.436;2022-08-21T10:44:01;22.80;69.30
11239;DHT22;5677;48.488;13.436;2022-08-21T10:46:47;22.90;69.30
11239;DHT22;5677;48.488;13.436;2022-08-21T10:49:25;22.90;69.20
11239;DHT22;5677;48.488;13.436;2022-08-21T10:52:26;22.90;69.20
11239;DHT22;5677;48.488;13.436;2022-08-21T10:55:11;22.90;69.10
11239;DHT22;5677;48.488;13.436;2022-08-21T10:57:47;22.90;68.80
11239;DHT22;5677;48.488;13.436;2022-08-21T11:00:23;23.00;68.70
11239;DHT22;5677;48.488;13.436;2022-08-21T11:03:02;23.00;68.30
11239;DHT22;5677;48.488;13.436;2022-08-21T11:05:41;23.00;68.20
11239;DHT22;5677;48.488;13.436;2022-08-21T11:08:19;23.00;68.30
11239;DHT22;5677;48.488;13.436;2022-08-21T11:10:55;23.00;68.00
11239;DHT22;5677;48.488;13.436;2022-08-21T11:13:39;23.00;67.60
11239;DHT22;5677;48.488;13.436;2022-08-21T11:16:18;23.00;67.50
11239;DHT22;5677;48.488;13.436;2022-08-21T11:18:55;23.00;67.40
11239;DHT22;5677;48.488;13.436;2022-08-21T11:21:35;23.00;67.10
11239;DHT22;5677;48.488;13.436;2022-08-21T11:24:21;23.00;67.10
11239;DHT22;5677;48.488;13.436;2022-08-21T11:27:03;23.00;66.80
11239;DHT22;5677;48.488;13.436;2022-08-21T11:29:39;23.00;66.80
11239;DHT22;5677;48.488;13.436;2022-08-21T11:35:33;23.10;66.60
11239;DHT22;5677;48.488;13.436;2022-08-21T11:38:26;23.10;66.60
11239;DHT22;5677;48.488;13.436;2022-08-21T11:41:20;23.10;66.40
11239;DHT22;5677;48.488;13.436;2022-08-21T11:44:04;23.10;66.30
11239;DHT22;5677;48.488;13.436;2022-08-21T11:46:50;23.10;66.20
11239;DHT22;5677;48.488;13.436;2022-08-21T11:49:40;23.10;66.10
11239;DHT22;5677;48.488;13.436;2022-08-21T11:52:22;23.10;66.10
11239;DHT22;5677;48.488;13.436;2022-08-21T11:55:01;23.10;65.90
11239;DHT22;5677;48.488;13.436;2022-08-21T11:57:39;23.10;64.30
11239;DHT22;5677;48.488;13.436;2022-08-21T12:00:19;23.10;64.20
11239;DHT22;5677;48.488;13.436;2022-08-21T12:02:55;23.10;64.40
11239;DHT22;5677;48.488;13.436;2022-08-21T12:05:30;23.10;64.70
11239;DHT22;5677;48.488;13.436;2022-08-21T12:08:05;23.10;64.60
11239;DHT22;5677;48.488;13.436;2022-08-21T12:10:38;23.10;64.50
11239;DHT22;5677;48.488;13.436;2022-08-21T12:13:11;23.20;64.30
11239;DHT22;5677;48.488;13.436;2022-08-21T12:15:50;23.10;64.00
11239;DHT22;5677;48.488;13.436;2022-08-21T12:18:28;23.10;63.70
11239;DHT22;5677;48.488;13.436;2022-08-21T12:21:02;23.20;63.70
11239;DHT22;5677;48.488;13.436;2022-08-21T12:23:46;23.20;61.10
11239;DHT22;5677;48.488;13.436;2022-08-21T12:26:25;23.10;60.80
11239;DHT22;5677;48.488;13.436;2022-08-21T12:29:11;23.10;60.60
11239;DHT22;5677;48.488;13.436;2022-08-21T12:31:51;23.10;60.70
11239;DHT22;5677;48.488;13.436;2022-08-21T12:34:32;23.10;60.50
11239;DHT22;5677;48.488;13.436;2022-08-21T12:37:05;23.20;60.70
11239;DHT22;5677;48.488;13.436;2022-08-21T12:39:44;23.20;60.70
11239;DHT22;5677;48.488;13.436;2022-08-21T12:42:18;23.20;60.20
11239;DHT22;5677;48.488;13.436;2022-08-21T12:44:53;23.20;59.50
11239;DHT22;5677;48.488;13.436;2022-08-21T12:47:29;23.10;59.10
11239;DHT22;5677;48.488;13.436;2022-08-21T12:50:06;23.10;58.80
11239;DHT22;5677;48.488;13.436;2022-08-21T12:52:42;23.00;59.10
11239;DHT22;5677;48.488;13.436;2022-08-21T12:55:25;23.00;58.90
11239;DHT22;5677;48.488;13.436;2022-08-21T12:57:55;23.00;58.90
11239;DHT22;5677;48.488;13.436;2022-08-21T13:00:26;23.00;58.80
11239;DHT22;5677;48.488;13.436;2022-08-21T13:02:57;22.90;58.60
11239;DHT22;5677;48.488;13.436;2022-08-21T13:05:33;22.90;58.30
11239;DHT22;5677;48.488;13.436;2022-08-21T13:08:05;22.90;58.30
11239;DHT22;5677;48.488;13.436;2022-08-21T13:10:36;22.80;58.10
11239;DHT22;5677;48.488;13.436;2022-08-21T13:13:09;22.80;58.20
11239;DHT22;5677;48.488;13.436;2022-08-21T13:15:45;22.80;58.10
11239;DHT22;5677;48.488;13.436;2022-08-21T13:18:21;22.80;57.70
11239;DHT22;5677;48.488;13.436;2022-08-21T13:21:04;22.80;57.80
11239;DHT22;5677;48.488;13.436;2022-08-21T13:23:34;22.70;58.50
11239;DHT22;5677;48.488;13.436;2022-08-21T13:26:13;22.70;58.80
11239;DHT22;5677;48.488;13.436;2022-08-21T13:28:42;22.70;58.90
11239;DHT22;5677;48.488;13.436;2022-08-21T13:31:18;22.70;58.90
11239;DHT22;5677;48.488;13.436;2022-08-21T13:33:49;22.70;58.90
11239;DHT22;5677;48.488;13.436;2022-08-21T13:36:25;22.70;59.10
11239;DHT22;5677;48.488;13.436;2022-08-21T13:38:56;22.70;59.20
11239;DHT22;5677;48.488;13.436;2022-08-21T13:41:28;22.80;59.20
11239;DHT22;5677;48.488;13.436;2022-08-21T13:44:02;22.80;59.20
11239;DHT22;5677;48.488;13.436;2022-08-21T13:46:35;22.80;59.30
11239;DHT22;5677;48.488;13.436;2022-08-21T13:49:05;22.80;59.30
11239;DHT22;5677;48.488;13.436;2022-08-21T13:51:37;22.80;59.40
11239;DHT22;5677;48.488;13.436;2022-08-21T13:54:16;22.80;59.40
11239;DHT22;5677;48.488;13.436;2022-08-21T13:56:53;22.80;59.40
11239;DHT22;5677;48.488;13.436;2022-08-21T13:59:27;22.80;59.50
11239;DHT22;5677;48.488;13.436;2022-08-21T14:01:59;22.80;59.60
11239;DHT22;5677;48.488;13.436;2022-08-21T14:04:37;22.80;59.60
11239;DHT22;5677;48.488;13.436;2022-08-21T14:07:18;22.80;59.80
11239;DHT22;5677;48.488;13.436;2022-08-21T14:09:52;22.80;59.80
11239;DHT22;5677;48.488;13.436;2022-08-21T14:12:32;22.80;59.80
11239;DHT22;5677;48.488;13.436;2022-08-21T14:15:08;22.80;59.60
11239;DHT22;5677;48.488;13.436;2022-08-21T14:17:41;22.80;59.70
11239;DHT22;5677;48.488;13.436;2022-08-21T14:20:25;22.80;59.60
11239;DHT22;5677;48.488;13.436;2022-08-21T14:22:57;22.80;59.60
11239;DHT22;5677;48.488;13.436;2022-08-21T14:25:30;22.70;59.30
11239;DHT22;5677;48.488;13.436;2022-08-21T14:28:14;22.70;58.90
11239;DHT22;5677;48.488;13.436;2022-08-21T14:30:49;22.70;58.60
11239;DHT22;5677;48.488;13.436;2022-08-21T14:33:22;22.70;58.70
11239;DHT22;5677;48.488;13.436;2022-08-21T14:35:54;22.70;59.00
11239;DHT22;5677;48.488;13.436;2022-08-21T14:38:26;22.70;59.50
11239;DHT22;5677;48.488;13.436;2022-08-21T14:40:57;22.60;59.60
11239;DHT22;5677;48.488;13.436;2022-08-21T14:43:31;22.70;59.80
11239;DHT22;5677;48.488;13.436;2022-08-21T14:46:01;22.70;59.70
11239;DHT22;5677;48.488;13.436;2022-08-21T14:48:29;22.70;59.80
11239;DHT22;5677;48.488;13.436;2022-08-21T14:50:58;22.70;59.80
11239;DHT22;5677;48.488;13.436;2022-08-21T14:53:28;22.70;59.80
11239;DHT22;5677;48.488;13.436;2022-08-21T14:55:57;22.70;59.90
11239;DHT22;5677;48.488;13.436;2022-08-21T14:58:34;22.70;60.00
11239;DHT22;5677;48.488;13.436;2022-08-21T15:01:06;22.70;60.70
11239;DHT22;5677;48.488;13.436;2022-08-21T15:03:36;22.70;60.00
11239;DHT22;5677;48.488;13.436;2022-08-21T15:06:06;22.80;60.00
11239;DHT22;5677;48.488;13.436;2022-08-21T15:08:38;22.80;60.00
11239;DHT22;5677;48.488;13.436;2022-08-21T15:11:07;22.80;60.10
11239;DHT22;5677;48.488;13.436;2022-08-21T15:13:40;22.80;60.20
11239;DHT22;5677;48.488;13.436;2022-08-21T15:16:11;22.80;60.20
11239;DHT22;5677;48.488;13.436;2022-08-21T15:18:40;22.80;60.20
11239;DHT22;5677;48.488;13.436;2022-08-21T15:21:10;22.80;60.30
11239;DHT22;5677;48.488;13.436;2022-08-21T15:23:41;22.80;60.30
11239;DHT22;5677;48.488;13.436;2022-08-21T15:26:10;22.80;60.40
11239;DHT22;5677;48.488;13.436;2022-08-21T15:28:39;22.80;60.50
11239;DHT22;5677;48.488;13.436;2022-08-21T15:31:08;22.80;61.30
11239;DHT22;5677;48.488;13.436;2022-08-21T15:33:37;22.80;60.60
11239;DHT22;5677;48.488;13.436;2022-08-21T15:36:06;22.80;60.60
11239;DHT22;5677;48.488;13.436;2022-08-21T15:38:36;22.80;60.80
11239;DHT22;5677;48.488;13.436;2022-08-21T15:41:09;22.80;60.90
11239;DHT22;5677;48.488;13.436;2022-08-21T15:43:44;22.80;61.00
11239;DHT22;5677;48.488;13.436;2022-08-21T15:46:17;22.80;61.10
11239;DHT22;5677;48.488;13.436;2022-08-21T15:48:50;22.80;61.20
11239;DHT22;5677;48.488;13.436;2022-08-21T15:51:19;22.80;61.20
11239;DHT22;5677;48.488;13.436;2022-08-21T15:53:49;22.80;61.30
11239;DHT22;5677;48.488;13.436;2022-08-21T15:56:22;22.80;61.30
11239;DHT22;5677;48.488;13.436;2022-08-21T16:05:09;22.80;61.50
11239;DHT22;5677;48.488;13.436;2022-08-21T16:07:37;22.80;61.50
11239;DHT22;5677;48.488;13.436;2022-08-21T16:10:06;22.80;61.50
11239;DHT22;5677;48.488;13.436;2022-08-21T16:12:38;22.90;61.60
11239;DHT22;5677;48.488;13.436;2022-08-21T16:15:11;22.90;61.70
11239;DHT22;5677;48.488;13.436;2022-08-21T16:17:40;22.80;61.60